FYRU

Rundu Airport

Rundu, Namibia
TAF FYRU 201700Z 2018/2103 06003KT CAVOK
Issued Valid From Valid To
Apr-20 @ 17:00 UTC
(an hour ago)
Apr-20 @ 18:00 UTC
(25 minutes ago)
Apr-21 @ 03:00 UTC
(in 9 hours)
Apr-20 @ 18:00 to Apr-21 @ 03:00
TAF FYRU 201700Z 2018/2103 06003KT CAVOK
Wind Visibility Clouds Conditions
60° at 3 knots 10,000+ meters
  • No significant clouds
TAF FYRU 201700Z 2018/2103 06003KT CAVOK
Issued Apr-20 @ 17:00 UTC
(an hour ago)
Valid From Apr-20 @ 18:00 UTC
(25 minutes ago)
Valid To Apr-21 @ 03:00 UTC
(in 9 hours)
Apr-20 @ 18:00 - Apr-21 @ 03:00
Wind Visibility
60° at 3 knots 10,000+ meters
Clouds
  • No significant clouds
Conditions